createdAt,value
2023-01-19T00:00:47.946Z,0.52
2023-01-19T00:05:50.029Z,0.70
2023-01-19T00:10:52.399Z,0.10
2023-01-19T00:15:54.615Z,0.40
2023-01-19T00:20:57.021Z,0.38
2023-01-19T00:25:59.279Z,0.10
2023-01-19T00:31:01.271Z,0.20
2023-01-19T00:36:03.859Z,0.10
2023-01-19T00:41:06.296Z,0.13
2023-01-19T00:46:08.607Z,0.13
2023-01-19T00:51:10.847Z,0.20
2023-01-19T00:56:12.859Z,0.20
2023-01-19T01:01:14.889Z,0.35
2023-01-19T01:06:17.024Z,0.20
2023-01-19T01:11:19.211Z,0.20
2023-01-19T01:16:21.190Z,0.10
2023-01-19T01:21:23.797Z,0.22
2023-01-19T01:26:27.122Z,0.50
2023-01-19T01:31:30.013Z,0.25
2023-01-19T01:36:33.649Z,0.30
2023-01-19T01:41:35.890Z,0.20
2023-01-19T01:46:38.198Z,0.50
2023-01-19T01:51:50.211Z,0.60
2023-01-19T01:56:54.186Z,0.50
2023-01-19T02:02:17.033Z,0.50
2023-01-19T02:08:01.369Z,0.43
2023-01-19T02:13:22.047Z,0.40
2023-01-19T02:18:27.588Z,0.20
2023-01-19T02:23:50.601Z,0.20
2023-01-19T02:29:01.073Z,0.20
2023-01-19T02:34:04.643Z,0.20
2023-01-19T02:39:07.500Z,0.17
2023-01-19T02:44:10.847Z,0.30
2023-01-19T02:49:13.740Z,0.10
2023-01-19T02:55:04.088Z,0.20
2023-01-19T03:00:47.748Z,0.17
2023-01-19T03:06:06.484Z,0.10
2023-01-19T03:11:10.801Z,0.10
2023-01-19T03:16:39.751Z,0.20
2023-01-19T03:21:45.145Z,0.20
2023-01-19T03:26:57.966Z,0.10
2023-01-19T03:32:03.173Z,0.38
2023-01-19T03:37:05.568Z,0.10
2023-01-19T03:42:11.061Z,0.17
2023-01-19T03:47:14.676Z,0.68
2023-01-19T03:52:16.892Z,0.43
2023-01-19T03:57:18.994Z,0.20
2023-01-19T04:02:21.117Z,0.20
2023-01-19T04:07:22.969Z,0.22
2023-01-19T04:12:25.026Z,0.17
2023-01-19T04:17:27.042Z,0.17
2023-01-19T04:22:29.836Z,0.13
2023-01-19T04:27:31.953Z,0.10
2023-01-19T04:32:34.167Z,0.20
2023-01-19T04:37:36.141Z,0.28
2023-01-19T04:42:38.287Z,0.20
2023-01-19T04:47:40.426Z,0.30
2023-01-19T04:52:42.283Z,0.32
2023-01-19T04:57:44.372Z,0.10
2023-01-19T05:02:46.402Z,0.40
2023-01-19T05:07:48.481Z,0.38
2023-01-19T05:12:51.438Z,0.20
2023-01-19T05:17:53.431Z,0.30
2023-01-19T05:22:55.420Z,0.20
2023-01-19T05:27:57.367Z,0.10
2023-01-19T05:32:59.559Z,0.20
2023-01-19T05:38:02.020Z,0.10
2023-01-19T05:43:06.174Z,0.30
2023-01-19T05:48:09.520Z,0.30
2023-01-19T05:53:12.388Z,0.20
2023-01-19T05:58:14.514Z,0.10
2023-01-19T06:03:16.577Z,0.20
2023-01-19T06:08:18.839Z,0.30
2023-01-19T06:13:21.546Z,0.20
2023-01-19T06:18:23.768Z,0.20
2023-01-19T06:23:27.014Z,0.13
2023-01-19T06:28:29.129Z,0.20
2023-01-19T06:33:31.715Z,0.40
2023-01-19T06:38:33.702Z,0.10
2023-01-19T06:43:35.780Z,0.60
2023-01-19T06:48:37.640Z,0.52
2023-01-19T06:53:39.735Z,0.25
2023-01-19T06:58:42.838Z,0.38
2023-01-19T07:03:46.803Z,0.30
2023-01-19T07:08:49.016Z,0.40
2023-01-19T07:13:54.360Z,0.55
2023-01-19T07:18:56.592Z,0.45
2023-01-19T07:23:58.778Z,0.55
2023-01-19T07:29:00.809Z,0.63
2023-01-19T07:34:02.709Z,0.50
2023-01-19T07:39:04.827Z,0.70
2023-01-19T07:44:07.208Z,0.60
2023-01-19T07:49:09.725Z,0.47
2023-01-19T07:54:11.847Z,1.00
2023-01-19T07:59:13.998Z,0.80
2023-01-19T08:04:19.302Z,1.00
2023-01-19T08:09:21.557Z,1.10
2023-01-19T08:14:23.582Z,1.23
2023-01-19T08:19:25.708Z,4.05
2023-01-19T08:24:29.280Z,2.13
2023-01-19T08:29:32.007Z,1.05
2023-01-19T08:34:34.030Z,1.10
2023-01-19T08:39:36.015Z,0.70
2023-01-19T08:44:46.725Z,0.73
2023-01-19T08:49:55.165Z,1.42
2023-01-19T08:54:57.147Z,0.85
2023-01-19T08:59:59.178Z,0.60
2023-01-19T09:05:01.122Z,0.40
2023-01-19T09:10:07.148Z,3.17
2023-01-19T09:15:11.206Z,0.85
2023-01-19T09:20:14.033Z,1.15
2023-01-19T09:25:16.318Z,1.08
2023-01-19T09:30:19.367Z,0.80
2023-01-19T09:35:21.936Z,0.90
2023-01-19T09:40:23.915Z,1.65
2023-01-19T09:45:36.933Z,1.20
2023-01-19T09:50:40.232Z,2.25
2023-01-19T09:55:42.946Z,1.50
2023-01-19T10:00:51.372Z,4.53
2023-01-19T10:06:01.603Z,3.00
2023-01-19T10:11:06.575Z,2.38
2023-01-19T10:16:17.672Z,1.92
2023-01-19T10:21:22.306Z,3.15
2023-01-19T10:26:39.349Z,1.52
2023-01-19T10:31:42.684Z,1.30
2023-01-19T10:36:47.341Z,0.70
2023-01-19T10:41:53.709Z,1.13
2023-01-19T10:46:59.261Z,1.30
2023-01-19T10:52:02.211Z,0.85
2023-01-19T10:57:06.301Z,0.90
2023-01-19T11:02:18.925Z,1.15
2023-01-19T11:07:34.375Z,0.55
2023-01-19T11:12:41.158Z,0.90
2023-01-19T11:17:46.669Z,4.18
2023-01-19T11:22:49.145Z,3.53
2023-01-19T11:27:51.944Z,1.80
2023-01-19T11:32:54.670Z,0.68
2023-01-19T11:38:17.300Z,3.90
2023-01-19T11:43:20.993Z,1.80
2023-01-19T11:48:32.327Z,2.28
2023-01-19T11:53:34.864Z,0.80
2023-01-19T11:58:47.517Z,1.58
2023-01-19T12:03:59.206Z,1.10
2023-01-19T12:14:03.252Z,1.40
2023-01-19T12:19:16.578Z,1.13
2023-01-19T12:24:31.969Z,2.53
2023-01-19T12:29:36.089Z,1.40
2023-01-19T12:34:49.317Z,2.70
2023-01-19T12:39:51.299Z,1.55
2023-01-19T12:45:23.645Z,1.70
2023-01-19T12:50:26.860Z,0.68
2023-01-19T12:55:33.426Z,0.90
2023-01-19T13:00:43.426Z,1.20
2023-01-19T13:05:45.385Z,1.10
2023-01-19T13:11:06.520Z,0.60
2023-01-19T13:16:20.822Z,0.95
2023-01-19T13:21:44.771Z,0.95
2023-01-19T13:26:50.037Z,1.23
2023-01-19T13:31:54.947Z,1.35
2023-01-19T13:36:59.500Z,2.53
2023-01-19T13:42:05.404Z,1.80
2023-01-19T13:47:16.738Z,1.45
2023-01-19T13:52:24.251Z,1.35
2023-01-19T13:57:43.761Z,1.27
2023-01-19T14:03:11.026Z,1.27
2023-01-19T14:08:15.403Z,1.42
2023-01-19T14:13:20.005Z,1.83
2023-01-19T14:18:21.945Z,0.93
2023-01-19T14:23:42.213Z,3.83
2023-01-19T14:28:44.783Z,1.40
2023-01-19T14:33:48.363Z,1.90
2023-01-19T14:38:51.692Z,6.88
2023-01-19T14:43:56.235Z,14.00
2023-01-19T14:49:03.774Z,11.57
2023-01-19T14:54:05.954Z,2.90
2023-01-19T14:59:11.115Z,2.55
2023-01-19T15:04:13.284Z,1.00
2023-01-19T15:09:15.818Z,1.10
2023-01-19T15:14:19.339Z,1.25
2023-01-19T15:19:21.386Z,1.85
2023-01-19T15:24:23.400Z,6.25
2023-01-19T15:29:26.376Z,2.17
2023-01-19T15:34:28.353Z,2.00
2023-01-19T15:39:30.449Z,2.10
2023-01-19T15:44:32.487Z,2.60
2023-01-19T15:49:34.574Z,2.35
2023-01-19T15:54:36.629Z,2.90
2023-01-19T15:59:38.483Z,2.13
2023-01-19T16:04:40.414Z,1.80
2023-01-19T16:09:42.285Z,1.40
2023-01-19T16:14:44.281Z,1.35
2023-01-19T16:19:46.432Z,1.27
2023-01-19T16:24:48.395Z,1.70
2023-01-19T16:29:50.634Z,1.48
2023-01-19T16:34:52.695Z,1.73
2023-01-19T16:39:54.688Z,2.30
2023-01-19T16:44:56.562Z,3.10
2023-01-19T16:49:58.467Z,1.83
2023-01-19T16:55:00.533Z,3.67
2023-01-19T17:00:03.830Z,1.52
2023-01-19T17:05:06.271Z,1.10
2023-01-19T17:10:09.649Z,1.63
2023-01-19T17:15:11.778Z,1.40
2023-01-19T17:20:14.161Z,1.70
2023-01-19T17:25:16.191Z,2.03
2023-01-19T17:30:18.281Z,1.70
2023-01-19T17:35:20.339Z,1.60
2023-01-19T17:40:22.586Z,1.50
2023-01-19T17:45:24.489Z,1.52
2023-01-19T17:50:26.386Z,1.50
2023-01-19T17:55:28.383Z,1.55
2023-01-19T18:00:30.302Z,1.80
2023-01-19T18:05:32.266Z,1.42
2023-01-19T18:10:34.312Z,1.25
2023-01-19T18:15:36.205Z,3.28
2023-01-19T18:20:40.045Z,3.30
2023-01-19T18:25:43.371Z,1.60
2023-01-19T18:30:45.646Z,2.20
2023-01-19T18:35:47.913Z,2.13
2023-01-19T18:41:42.427Z,1.30
2023-01-19T19:54:13.614Z,2.20
2023-01-19T19:59:15.568Z,1.48
2023-01-19T20:04:20.419Z,1.75
2023-01-19T20:09:22.611Z,1.10
2023-01-19T20:14:24.737Z,1.40
2023-01-19T20:19:26.705Z,1.10
2023-01-19T20:24:28.802Z,1.35
2023-01-19T20:29:30.825Z,0.90
2023-01-19T20:34:33.838Z,1.42
2023-01-19T20:39:37.251Z,0.80
2023-01-19T20:44:40.100Z,1.40
2023-01-19T20:49:42.785Z,1.13
2023-01-19T20:54:44.717Z,0.90
2023-01-19T20:59:47.318Z,1.23
2023-01-19T21:04:49.373Z,1.58
2023-01-19T21:09:51.261Z,0.80
2023-01-19T21:14:53.358Z,1.13
2023-01-19T21:19:55.326Z,1.50
2023-01-19T21:24:57.416Z,0.95
2023-01-19T21:30:01.000Z,1.38
2023-01-19T21:35:02.940Z,1.00
2023-01-19T21:40:05.483Z,0.80
2023-01-19T21:45:08.349Z,1.25
2023-01-19T21:50:11.008Z,1.15
2023-01-19T21:55:13.196Z,0.82
2023-01-19T22:00:15.610Z,0.85
2023-01-19T22:05:17.790Z,0.70
2023-01-19T22:10:19.830Z,0.90
2023-01-19T22:15:21.843Z,0.80
2023-01-19T22:20:23.826Z,0.70
2023-01-19T22:25:28.077Z,1.55
2023-01-19T22:30:30.323Z,0.73
2023-01-19T22:35:32.427Z,0.63
2023-01-19T22:40:49.513Z,0.50
2023-01-19T22:45:56.187Z,0.40
2023-01-19T22:50:58.214Z,0.52
2023-01-19T22:56:00.412Z,0.40
2023-01-19T23:01:09.491Z,0.40
2023-01-19T23:06:14.007Z,0.40
2023-01-19T23:11:23.328Z,0.45
2023-01-19T23:16:25.456Z,0.40
2023-01-19T23:21:29.220Z,0.30
2023-01-19T23:26:38.098Z,0.25
2023-01-19T23:31:44.498Z,0.60
2023-01-19T23:36:46.537Z,0.50
2023-01-19T23:41:49.541Z,0.40
2023-01-19T23:46:51.556Z,0.30
2023-01-19T23:51:53.587Z,0.40
2023-01-19T23:56:55.658Z,0.10
